Time;durP1;ratioP1;P1;durP2;ratioP2;P2;SDS_P1;SDS_P2;PMS_P1;PMS_P2;Temp;Humidity;BMP_temperature;BMP_pressure;BME280_temperature;BME280_humidity;BME280_pressure;Samples;Min_cycle;Max_cycle;Signal;HPM_P1;HPM_P2
2022/10/13 00:00:48;;;;;;;11.55;6.45;;;;;;;9.17;80.72;100707.80;1632362;87;21020;-80
2022/10/13 00:03:14;;;;;;;8.50;6.15;;;;;;;9.18;80.69;100706.77;1632344;87;21085;-76
2022/10/13 00:05:47;;;;;;;10.93;5.65;;;;;;;9.19;80.77;100709.77;1632309;87;21102;-77
2022/10/13 00:08:18;;;;;;;10.90;5.72;;;;;;;9.22;80.76;100709.02;1612578;86;21052;-77
2022/10/13 00:10:48;;;;;;;13.68;6.65;;;;;;;9.21;80.68;100711.42;1626650;86;21043;-75
2022/10/13 00:13:18;;;;;;;10.80;6.37;;;;;;;9.17;80.70;100706.98;1652044;85;21017;-70
2022/10/13 00:15:45;;;;;;;13.98;6.17;;;;;;;9.14;80.80;100700.72;1656321;85;21063;-74
2022/10/13 00:18:14;;;;;;;9.28;5.87;;;;;;;9.10;80.92;100707.04;1652114;85;21585;-72
2022/10/13 00:20:47;;;;;;;12.68;6.30;;;;;;;9.07;81.02;100710.65;1646114;86;21046;-75
2022/10/13 00:23:15;;;;;;;9.75;6.15;;;;;;;9.06;81.22;100704.48;1650031;86;20944;-74
2022/10/13 00:25:45;;;;;;;10.85;4.90;;;;;;;9.06;81.52;100707.17;1678215;85;21105;-75
2022/10/13 00:28:12;;;;;;;11.57;5.70;;;;;;;9.08;81.73;100705.59;1657529;86;20975;-74
2022/10/13 00:30:39;;;;;;;16.97;6.40;;;;;;;9.10;81.87;100704.36;1656822;86;21048;-75
2022/10/13 00:33:07;;;;;;;16.85;6.22;;;;;;;9.12;82.00;100707.63;1639011;85;21161;-75
2022/10/13 00:35:33;;;;;;;11.57;5.58;;;;;;;9.13;82.01;100703.91;1634966;87;21556;-74
2022/10/13 00:38:00;;;;;;;11.93;6.05;;;;;;;9.12;82.10;100706.28;1634768;87;21653;-75
2022/10/13 00:40:28;;;;;;;12.60;5.05;;;;;;;9.10;82.27;100703.02;1647275;85;21555;-71
2022/10/13 00:42:55;;;;;;;13.22;6.22;;;;;;;9.08;82.48;100700.22;1642798;86;21600;-73
2022/10/13 00:45:28;;;;;;;13.90;5.55;;;;;;;9.08;82.64;100700.22;1655461;85;21055;-73
2022/10/13 00:47:59;;;;;;;10.72;5.95;;;;;;;9.09;82.78;100705.91;1665717;85;21007;-76
2022/10/13 00:50:35;;;;;;;8.85;5.70;;;;;;;9.12;82.91;100701.44;1645743;87;21072;-71
2022/10/13 00:53:01;;;;;;;10.50;6.47;;;;;;;9.17;82.86;100701.61;1646355;85;21126;-79
2022/10/13 00:55:31;;;;;;;12.98;6.72;;;;;;;9.17;82.76;100700.27;1646436;86;21508;-77
2022/10/13 00:58:00;;;;;;;10.20;6.50;;;;;;;9.17;82.64;100704.30;1647621;86;21822;-73
2022/10/13 01:00:30;;;;;;;10.55;5.35;;;;;;;9.16;82.60;100698.10;1646031;85;21099;-74
2022/10/13 01:02:58;;;;;;;13.13;6.12;;;;;;;9.13;82.72;100702.57;1673424;85;21123;-75
2022/10/13 01:05:25;;;;;;;11.40;5.70;;;;;;;9.08;82.88;100702.39;1673153;85;21062;-74
2022/10/13 01:07:54;;;;;;;10.82;6.22;;;;;;;9.06;83.01;100707.17;1644815;85;21099;-73
2022/10/13 01:10:48;;;;;;;12.88;5.40;;;;;;;9.03;83.26;100703.55;1654099;85;21207;-71
2022/10/13 01:14:09;;;;;;;11.38;6.05;;;;;;;9.03;83.48;100702.21;1655275;86;21096;-71
2022/10/13 01:17:20;;;;;;;9.85;6.55;;;;;;;9.05;83.60;100697.98;1642454;86;21050;-73
2022/10/13 01:20:07;;;;;;;8.63;5.55;;;;;;;9.05;83.65;100696.64;1645095;86;21042;-75
2022/10/13 01:22:59;;;;;;;11.53;7.03;;;;;;;9.02;83.79;100695.19;1662454;86;21082;-73
2022/10/13 01:25:58;;;;;;;11.70;6.58;;;;;;;9.00;83.87;100698.63;1619689;88;21281;-71
2022/10/13 01:28:51;;;;;;;12.45;6.97;;;;;;;8.98;83.87;100698.52;1636654;86;21073;-74
2022/10/13 01:31:57;;;;;;;14.13;6.70;;;;;;;8.94;83.96;100692.77;1629188;88;21051;-73
2022/10/13 01:34:45;;;;;;;11.78;5.75;;;;;;;8.91;84.11;100694.55;1603216;89;21102;-72
2022/10/13 01:37:29;;;;;;;11.28;7.05;;;;;;;8.92;84.26;100684.64;1603226;89;21070;-71
2022/10/13 01:40:04;;;;;;;14.70;7.55;;;;;;;8.94;84.38;100687.41;1603064;89;21184;-71
2022/10/13 01:42:42;;;;;;;11.68;7.00;;;;;;;8.98;84.35;100683.77;1613845;88;21619;-71
2022/10/13 01:45:10;;;;;;;11.10;6.20;;;;;;;9.00;84.31;100686.55;1595873;88;21598;-72
2022/10/13 01:47:37;;;;;;;15.78;7.65;;;;;;;8.99;84.28;100680.87;1618482;87;21039;-72
2022/10/13 01:50:05;;;;;;;14.70;7.30;;;;;;;8.99;84.31;100678.20;1619007;87;21072;-76
2022/10/13 01:52:36;;;;;;;12.05;6.10;;;;;;;8.99;84.40;100680.87;1648360;86;21176;-74
2022/10/13 01:55:09;;;;;;;14.10;7.78;;;;;;;8.99;84.59;100684.08;1627001;88;21592;-73
2022/10/13 01:57:42;;;;;;;14.43;7.28;;;;;;;8.99;84.66;100678.20;1603109;88;21565;-74
2022/10/13 02:00:14;;;;;;;16.93;6.67;;;;;;;9.02;84.68;100683.63;1617501;88;21067;-73
2022/10/13 02:03:07;;;;;;;13.62;7.65;;;;;;;9.05;84.74;100689.41;1619527;87;21044;-74
2022/10/13 02:05:48;;;;;;;12.25;7.10;;;;;;;9.09;84.65;100683.91;1623266;87;21206;-74
2022/10/13 02:08:26;;;;;;;9.75;6.90;;;;;;;9.11;84.42;100689.08;1618396;87;21794;-73
2022/10/13 02:11:15;;;;;;;11.38;7.55;;;;;;;9.10;84.18;100688.77;1617548;88;21215;-72
2022/10/13 02:13:48;;;;;;;12.78;7.58;;;;;;;9.08;84.10;100691.66;1624264;88;21024;-73
2022/10/13 02:16:19;;;;;;;12.03;7.50;;;;;;;9.03;84.06;100695.50;1618852;88;21644;-73
2022/10/13 02:18:46;;;;;;;12.88;8.15;;;;;;;9.01;84.03;100695.43;1629319;88;21087;-73
2022/10/13 02:21:14;;;;;;;18.23;8.23;;;;;;;8.96;84.09;100694.73;1627291;87;21817;-74
2022/10/13 02:23:43;;;;;;;12.13;7.28;;;;;;;8.95;84.25;100690.91;1594663;88;20992;-74
2022/10/13 02:26:11;;;;;;;12.18;8.20;;;;;;;8.93;84.41;100694.31;1617802;88;21484;-74
2022/10/13 02:28:38;;;;;;;9.73;7.35;;;;;;;8.93;84.57;100694.31;1617210;86;21595;-73
2022/10/13 02:31:07;;;;;;;13.05;8.90;;;;;;;8.96;84.60;100696.08;1642962;87;21139;-74
2022/10/13 02:33:35;;;;;;;9.48;6.35;;;;;;;8.96;84.61;100697.94;1615317;87;21116;-72
2022/10/13 02:36:01;;;;;;;11.65;7.00;;;;;;;8.96;84.62;100693.39;1642704;87;21108;-72
2022/10/13 02:38:27;;;;;;;14.23;8.10;;;;;;;8.94;84.73;100699.48;1642474;87;21062;-72
2022/10/13 02:40:55;;;;;;;13.48;6.75;;;;;;;8.91;84.82;100700.44;1642533;87;21700;-70
2022/10/13 02:43:23;;;;;;;12.40;7.47;;;;;;;8.90;84.85;100700.95;1642196;87;22073;-73
2022/10/13 02:45:50;;;;;;;20.10;8.45;;;;;;;8.89;84.91;100701.98;1639935;84;21769;-73
2022/10/13 02:48:17;;;;;;;14.75;7.22;;;;;;;8.89;85.04;100702.49;1643395;85;21127;-73
2022/10/13 02:50:43;;;;;;;20.75;8.13;;;;;;;8.90;85.21;100697.44;1621608;87;21135;-71
2022/10/13 02:53:09;;;;;;;14.40;8.13;;;;;;;8.94;85.31;100695.97;1634813;87;21063;-71
2022/10/13 02:55:36;;;;;;;16.80;8.00;;;;;;;8.96;85.27;100701.44;1666206;85;21575;-74
2022/10/13 02:58:03;;;;;;;12.68;7.75;;;;;;;8.96;85.30;100692.56;1645459;85;21539;-72
2022/10/13 03:00:30;;;;;;;17.15;7.58;;;;;;;8.96;85.25;100700.61;1653993;85;21564;-72
2022/10/13 03:02:56;;;;;;;11.73;8.00;;;;;;;8.92;85.29;100695.38;1646162;85;21603;-71
2022/10/13 03:05:23;;;;;;;12.88;8.38;;;;;;;8.91;85.32;100697.75;1615414;87;21102;-72
2022/10/13 03:07:49;;;;;;;11.45;7.80;;;;;;;8.89;85.35;100694.45;1661469;84;21255;-75
2022/10/13 03:10:16;;;;;;;13.88;8.10;;;;;;;8.88;85.41;100700.84;1642936;87;21023;-73
2022/10/13 03:12:42;;;;;;;13.15;7.00;;;;;;;8.86;85.42;100699.73;1643125;87;21157;-74
2022/10/13 03:15:09;;;;;;;15.90;8.23;;;;;;;8.84;85.57;100691.06;1642292;85;21126;-74
2022/10/13 03:17:38;;;;;;;15.68;8.13;;;;;;;8.82;85.69;100691.81;1640953;86;20969;-74
2022/10/13 03:20:06;;;;;;;10.68;8.23;;;;;;;8.84;85.86;100693.75;1642538;86;21116;-72
2022/10/13 03:22:33;;;;;;;22.40;10.05;;;;;;;8.87;85.82;100689.31;1595983;87;21179;-76
2022/10/13 03:25:02;;;;;;;11.75;8.03;;;;;;;8.90;85.84;100694.23;1643078;87;21046;-73
2022/10/13 03:27:30;;;;;;;13.72;7.60;;;;;;;8.91;85.73;100691.87;1643007;87;21042;-73
2022/10/13 03:29:57;;;;;;;16.85;8.48;;;;;;;8.92;85.58;100695.38;1659974;84;21008;-73
2022/10/13 03:32:23;;;;;;;17.30;8.13;;;;;;;8.90;85.59;100696.92;1651277;86;21134;-75
2022/10/13 03:34:51;;;;;;;14.23;8.80;;;;;;;8.87;85.69;100701.91;1635991;86;21060;-75
2022/10/13 03:37:17;;;;;;;13.50;6.78;;;;;;;8.86;85.89;100697.56;1645722;87;21007;-70
2022/10/13 03:39:45;;;;;;;17.80;7.42;;;;;;;8.86;86.04;100701.59;1645784;86;21031;-73
2022/10/13 03:42:12;;;;;;;12.28;8.28;;;;;;;8.87;86.21;100697.36;1645698;87;21068;-72
2022/10/13 03:44:38;;;;;;;12.58;7.95;;;;;;;8.89;86.36;100698.47;1645164;87;21233;-72
2022/10/13 03:47:05;;;;;;;14.63;7.37;;;;;;;8.91;86.43;100694.55;1645888;87;21566;-73
2022/10/13 03:49:32;;;;;;;19.42;9.53;;;;;;;8.92;86.34;100701.53;1641219;85;21028;-69
2022/10/13 03:51:59;;;;;;;11.00;8.20;;;;;;;8.94;86.32;100702.67;1634850;87;21739;-71
2022/10/13 03:54:26;;;;;;;17.87;8.58;;;;;;;8.96;86.36;100704.64;1644038;85;21078;-72
2022/10/13 03:56:52;;;;;;;13.70;7.17;;;;;;;8.96;86.23;100701.44;1644930;85;21827;-72
2022/10/13 03:59:19;;;;;;;15.75;8.80;;;;;;;8.94;86.23;100706.19;1644540;87;21697;-72
2022/10/13 04:01:45;;;;;;;17.52;8.90;;;;;;;8.92;86.34;100704.77;1646083;87;21067;-70
2022/10/13 04:04:13;;;;;;;16.02;7.87;;;;;;;8.90;86.38;100698.78;1645792;87;21118;-71
2022/10/13 04:06:41;;;;;;;17.00;8.80;;;;;;;8.89;86.60;100699.81;1645265;87;21055;-69
2022/10/13 04:09:09;;;;;;;11.33;7.22;;;;;;;8.90;86.74;100704.14;1645981;87;20995;-70
2022/10/13 04:11:36;;;;;;;14.38;7.35;;;;;;;8.91;86.74;100704.45;1645866;85;21051;-70
2022/10/13 04:14:04;;;;;;;14.18;7.85;;;;;;;8.94;86.81;100707.53;1645446;85;21025;-74
2022/10/13 04:16:31;;;;;;;20.95;7.90;;;;;;;8.95;86.76;100706.50;1646107;87;21078;-70
2022/10/13 04:19:03;;;;;;;14.47;8.35;;;;;;;8.93;86.72;100713.92;1646118;87;21184;-69
2022/10/13 04:21:32;;;;;;;15.85;9.00;;;;;;;8.90;86.79;100713.53;1644947;87;21932;-71
2022/10/13 04:23:59;;;;;;;14.23;7.75;;;;;;;8.89;86.91;100717.25;1620607;87;21059;-70
2022/10/13 04:26:31;;;;;;;16.67;7.87;;;;;;;8.88;86.96;100715.08;1644608;87;21110;-70
2022/10/13 04:29:03;;;;;;;15.75;8.25;;;;;;;8.89;87.05;100711.88;1644432;85;21730;-69
2022/10/13 04:31:30;;;;;;;14.78;7.67;;;;;;;8.93;87.15;100713.09;1620851;87;21121;-72
2022/10/13 04:33:58;;;;;;;17.17;8.68;;;;;;;8.95;87.06;100721.25;1609662;87;21094;-68
2022/10/13 04:36:25;;;;;;;14.63;7.80;;;;;;;8.98;87.03;100711.42;1618340;88;21420;-71
2022/10/13 04:38:52;;;;;;;13.90;7.67;;;;;;;9.04;86.79;100717.80;1633542;87;21110;-71
2022/10/13 04:41:20;;;;;;;15.60;7.20;;;;;;;9.04;86.53;100709.75;1646130;87;21097;-74
2022/10/13 04:43:50;;;;;;;11.12;7.33;;;;;;;9.04;86.43;100712.43;1646302;87;21056;-71
2022/10/13 04:46:24;;;;;;;16.42;7.45;;;;;;;9.01;86.38;100708.84;1645178;87;21146;-71
2022/10/13 04:48:51;;;;;;;19.40;7.80;;;;;;;8.96;86.39;100718.87;1618688;87;21017;-72
2022/10/13 04:51:21;;;;;;;11.33;7.95;;;;;;;8.95;86.50;100715.06;1618853;87;21001;-69
2022/10/13 04:53:50;;;;;;;14.90;8.65;;;;;;;8.96;86.65;100717.54;1617436;88;21064;-69
2022/10/13 04:56:18;;;;;;;17.65;8.95;;;;;;;9.00;86.73;100720.61;1603688;87;21084;-69
2022/10/13 04:58:45;;;;;;;11.38;6.83;;;;;;;9.06;86.80;100715.22;1646044;87;22081;-71
2022/10/13 05:01:18;;;;;;;10.18;6.75;;;;;;;9.12;86.79;100718.87;1642875;87;21667;-70
2022/10/13 05:03:46;;;;;;;15.80;7.07;;;;;;;9.14;86.81;100714.13;1619101;87;22343;-69
2022/10/13 05:06:14;;;;;;;12.78;7.00;;;;;;;9.15;86.92;100713.92;1618735;88;21458;-72
2022/10/13 05:08:41;;;;;;;14.68;7.03;;;;;;;9.15;86.95;100712.59;1618205;88;21639;-69
2022/10/13 05:11:09;;;;;;;14.68;8.65;;;;;;;9.14;86.87;100714.95;1619260;88;21242;-71
2022/10/13 05:13:37;;;;;;;14.30;8.33;;;;;;;9.13;86.85;100721.87;1619649;88;21025;-69
2022/10/13 05:16:10;;;;;;;8.90;6.30;;;;;;;9.13;86.93;100723.22;1639646;87;21040;-69
2022/10/13 05:18:36;;;;;;;14.47;8.50;;;;;;;9.14;86.95;100731.58;1645639;87;21117;-69
2022/10/13 05:21:14;;;;;;;13.70;7.80;;;;;;;9.13;86.99;100734.78;1621879;87;21148;-70
2022/10/13 05:23:41;;;;;;;14.35;8.65;;;;;;;9.15;87.03;100730.55;1617129;88;21827;-71
2022/10/13 05:26:11;;;;;;;18.52;8.53;;;;;;;9.18;87.08;100736.81;1619790;88;21636;-69
2022/10/13 05:28:39;;;;;;;17.57;8.70;;;;;;;9.19;87.06;100735.27;1614118;87;21573;-70
2022/10/13 05:31:16;;;;;;;13.08;8.68;;;;;;;9.20;87.00;100738.78;1633760;87;21119;-71
2022/10/13 05:33:43;;;;;;;22.90;7.60;;;;;;;9.18;86.89;100742.18;1615131;88;21114;-70
2022/10/13 05:36:16;;;;;;;11.60;6.95;;;;;;;9.13;86.95;100745.52;1644910;86;21673;-71
2022/10/13 05:38:42;;;;;;;17.27;8.00;;;;;;;9.10;87.04;100745.13;1645914;87;21070;-70
2022/10/13 05:41:12;;;;;;;21.33;8.20;;;;;;;9.08;87.12;100745.33;1645858;86;21121;-70
2022/10/13 05:43:39;;;;;;;17.55;7.75;;;;;;;9.10;87.29;100743.27;1645121;87;21035;-71
2022/10/13 05:46:06;;;;;;;18.70;8.80;;;;;;;9.14;87.28;100748.51;1645794;87;21107;-70
2022/10/13 05:48:36;;;;;;;23.12;8.80;;;;;;;9.19;87.27;100743.84;1646194;87;21274;-70
2022/10/13 05:51:13;;;;;;;15.58;9.00;;;;;;;9.22;87.09;100746.08;1645807;87;21089;-71
2022/10/13 05:53:42;;;;;;;10.50;7.83;;;;;;;9.25;86.97;100748.35;1643562;87;21150;-70
2022/10/13 05:56:14;;;;;;;13.70;8.40;;;;;;;9.28;86.92;100749.77;1629132;86;21130;-70
2022/10/13 05:58:46;;;;;;;16.77;8.48;;;;;;;9.30;86.87;100755.76;1645740;87;21017;-70
2022/10/13 06:01:16;;;;;;;18.67;10.28;;;;;;;9.31;86.74;100754.70;1646120;87;21790;-69
2022/10/13 06:03:43;;;;;;;15.65;8.78;;;;;;;9.27;86.77;100750.28;1645685;87;21144;-69
2022/10/13 06:06:11;;;;;;;12.80;9.00;;;;;;;9.31;87.01;100754.70;1645947;87;21061;-70
2022/10/13 06:08:38;;;;;;;16.73;8.80;;;;;;;9.38;87.08;100756.33;1644394;87;21071;-70
2022/10/13 06:11:05;;;;;;;14.33;9.40;;;;;;;9.47;87.13;100756.88;1646402;86;21076;-75
2022/10/13 06:13:32;;;;;;;17.05;10.00;;;;;;;9.57;86.93;100763.95;1621152;87;21155;-71
2022/10/13 06:16:00;;;;;;;11.70;9.38;;;;;;;9.65;86.65;100763.67;1645436;86;21155;-66
2022/10/13 06:18:28;;;;;;;17.80;9.53;;;;;;;9.70;86.39;100761.67;1646077;86;21063;-69
2022/10/13 06:20:54;;;;;;;19.35;10.82;;;;;;;9.72;86.17;100766.33;1645467;87;21130;-69
2022/10/13 06:23:22;;;;;;;17.87;9.93;;;;;;;9.74;86.10;100757.51;1645878;87;21046;-69
2022/10/13 06:25:51;;;;;;;13.20;8.85;;;;;;;9.75;86.05;100759.98;1645701;87;21114;-70
2022/10/13 06:28:19;;;;;;;19.12;11.30;;;;;;;9.78;86.04;100758.75;1645459;86;21076;-69
2022/10/13 06:30:52;;;;;;;16.85;8.80;;;;;;;9.77;85.95;100761.95;1646055;87;21633;-69
2022/10/13 06:33:17;;;;;;;13.40;8.10;;;;;;;9.83;86.17;100767.77;1644340;87;21056;-69
2022/10/13 06:35:46;;;;;;;14.10;8.90;;;;;;;9.84;85.92;100762.70;1645221;85;21088;-71
2022/10/13 06:38:13;;;;;;;15.48;8.30;;;;;;;9.88;85.88;100762.56;1645698;87;21395;-70
2022/10/13 06:40:41;;;;;;;14.58;7.83;;;;;;;9.93;85.92;100767.28;1624372;87;21020;-69
2022/10/13 06:43:08;;;;;;;9.40;7.40;;;;;;;10.01;85.73;100766.52;1653631;86;21046;-70
2022/10/13 06:45:37;;;;;;;15.43;8.50;;;;;;;10.04;85.30;100762.03;1656532;85;21099;-71
2022/10/13 06:48:04;;;;;;;12.53;8.23;;;;;;;10.02;85.10;100757.38;1655921;85;21095;-70
2022/10/13 06:50:31;;;;;;;13.68;8.00;;;;;;;10.00;85.08;100772.09;1655937;86;21037;-71
2022/10/13 06:52:58;;;;;;;17.05;8.75;;;;;;;9.99;85.15;100758.34;1656009;86;20936;-70
2022/10/13 06:55:25;;;;;;;8.85;7.37;;;;;;;9.99;85.19;100761.86;1654507;85;21307;-70
2022/10/13 06:57:51;;;;;;;17.12;8.25;;;;;;;10.05;85.29;100764.20;1637838;85;21060;-72
2022/10/13 07:00:18;;;;;;;15.60;8.20;;;;;;;10.11;85.38;100771.39;1643209;87;21023;-74
2022/10/13 07:02:51;;;;;;;10.15;7.75;;;;;;;10.19;85.18;100766.27;1643400;87;21147;-72
2022/10/13 07:05:18;;;;;;;15.53;8.00;;;;;;;10.28;85.10;100772.49;1645846;86;21096;-71
2022/10/13 07:07:45;;;;;;;11.68;8.13;;;;;;;10.35;84.90;100767.06;1645448;86;21007;-70
2022/10/13 07:10:11;;;;;;;11.30;8.43;;;;;;;10.42;84.70;100769.97;1645744;87;21042;-71
2022/10/13 07:12:39;;;;;;;15.23;10.40;;;;;;;10.45;84.41;100770.86;1625871;86;21093;-67
2022/10/13 07:15:10;;;;;;;14.55;7.92;;;;;;;10.47;84.40;100774.16;1639121;86;22427;-66
2022/10/13 07:17:38;;;;;;;13.32;8.25;;;;;;;10.52;84.32;100762.73;1653380;85;21048;-67
2022/10/13 07:20:07;;;;;;;14.35;7.55;;;;;;;10.55;84.23;100763.63;1640117;86;28090;-68
2022/10/13 07:22:34;;;;;;;11.25;7.47;;;;;;;10.58;84.21;100765.89;1618952;87;21110;-67
2022/10/13 07:25:01;;;;;;;46.53;30.30;;;;;;;10.60;84.03;100760.29;1648181;85;21163;-66
2022/10/13 07:27:28;;;;;;;15.32;10.38;;;;;;;10.63;84.10;100767.91;1645758;87;21269;-69
2022/10/13 07:29:55;;;;;;;15.13;9.20;;;;;;;10.66;83.75;100768.27;1644886;85;21556;-68
2022/10/13 07:32:22;;;;;;;20.40;9.70;;;;;;;10.61;83.33;100768.64;1662678;84;21532;-67
2022/10/13 07:34:52;;;;;;;16.07;9.43;;;;;;;10.56;83.32;100769.31;1657981;86;22362;-66
2022/10/13 07:37:20;;;;;;;26.52;12.98;;;;;;;10.58;83.52;100766.41;1653565;85;21131;-67
2022/10/13 07:39:47;;;;;;;27.02;16.97;;;;;;;10.67;83.37;100768.58;1652697;85;21103;-67
2022/10/13 07:42:13;;;;;;;18.87;12.70;;;;;;;10.72;83.12;100769.25;1661380;85;21006;-68
2022/10/13 07:44:41;;;;;;;17.70;13.00;;;;;;;10.76;82.94;100769.09;1615249;86;20970;-68
2022/10/13 07:47:08;;;;;;;14.10;9.23;;;;;;;10.81;82.61;100766.03;1628922;87;21019;-70
2022/10/13 07:49:35;;;;;;;13.80;8.40;;;;;;;10.85;82.43;100765.05;1631221;87;21062;-71
2022/10/13 07:52:03;;;;;;;19.75;9.75;;;;;;;10.92;82.21;100767.16;1617195;88;21088;-68
2022/10/13 07:54:31;;;;;;;19.27;12.43;;;;;;;10.99;81.86;100767.88;1617458;88;21122;-70
2022/10/13 07:56:58;;;;;;;23.50;10.48;;;;;;;11.07;81.82;100769.45;1651756;85;21021;-70
2022/10/13 07:59:24;;;;;;;17.15;8.60;;;;;;;11.12;81.23;100769.60;1624192;86;21085;-69
2022/10/13 08:01:52;;;;;;;15.18;8.73;;;;;;;11.15;80.60;100765.92;1623169;86;21094;-69
2022/10/13 08:04:18;;;;;;;19.02;8.33;;;;;;;11.17;80.23;100771.09;1615013;86;21261;-69
2022/10/13 08:06:45;;;;;;;21.48;8.33;;;;;;;11.21;80.01;100772.28;1646541;85;21133;-69
2022/10/13 08:09:12;;;;;;;13.48;7.65;;;;;;;11.26;79.60;100773.24;1662431;86;21043;-69
2022/10/13 08:11:39;;;;;;;17.27;9.18;;;;;;;11.32;79.45;100772.83;1645168;85;21070;-69
2022/10/13 08:14:05;;;;;;;13.95;8.25;;;;;;;11.35;79.10;100774.56;1649414;85;21094;-68
2022/10/13 08:16:32;;;;;;;22.62;10.53;;;;;;;11.39;78.93;100772.23;1615043;88;21162;-69
2022/10/13 08:18:59;;;;;;;19.30;9.20;;;;;;;11.46;78.71;100774.84;1644538;85;21683;-68
2022/10/13 08:21:28;;;;;;;11.50;8.55;;;;;;;11.55;78.77;100772.11;1651286;85;21027;-67
2022/10/13 08:23:55;;;;;;;16.57;7.65;;;;;;;11.68;78.44;100775.43;1655243;85;21091;-69
2022/10/13 08:26:25;;;;;;;14.20;7.08;;;;;;;11.78;77.93;100769.52;1615633;88;21137;-69
2022/10/13 08:28:51;;;;;;;11.73;7.22;;;;;;;11.81;77.59;100775.77;1641638;87;21143;-70
2022/10/13 08:31:19;;;;;;;21.33;7.67;;;;;;;11.89;77.40;100778.16;1637706;86;21567;-69
2022/10/13 08:33:46;;;;;;;13.62;7.92;;;;;;;11.95;77.23;100772.34;1646049;85;21083;-72
2022/10/13 08:36:15;;;;;;;11.50;6.95;;;;;;;12.08;77.06;100772.14;1642527;87;21079;-71
2022/10/13 08:38:43;;;;;;;17.98;8.30;;;;;;;12.18;75.91;100773.18;1641735;86;21103;-72
2022/10/13 08:41:18;;;;;;;12.18;6.53;;;;;;;12.21;76.02;100771.91;1632141;87;21284;-72
2022/10/13 08:43:50;;;;;;;11.22;6.60;;;;;;;12.30;75.58;100773.72;1610011;87;21271;-68
2022/10/13 08:46:38;;;;;;;9.73;6.33;;;;;;;12.28;75.34;100773.95;1636189;86;21111;-71
2022/10/13 08:49:05;;;;;;;14.65;7.28;;;;;;;12.30;75.41;100778.59;1644479;86;21103;-69
2022/10/13 08:51:32;;;;;;;12.85;7.28;;;;;;;12.34;74.69;100778.94;1642574;84;21126;-69
2022/10/13 08:53:59;;;;;;;17.85;6.78;;;;;;;12.25;74.71;100777.13;1615472;87;21226;-70
2022/10/13 08:56:30;;;;;;;10.48;6.33;;;;;;;12.20;74.82;100777.00;1646551;87;21087;-70
2022/10/13 08:58:56;;;;;;;10.95;6.92;;;;;;;12.19;75.00;100778.88;1646889;87;21466;-73
2022/10/13 09:01:33;;;;;;;10.82;6.00;;;;;;;12.19;75.00;100783.45;1647910;86;21640;-69
2022/10/13 09:04:36;;;;;;;13.70;6.55;;;;;;;12.18;75.19;100783.17;1647512;87;22277;-71
2022/10/13 09:07:26;;;;;;;15.32;6.42;;;;;;;12.22;75.20;100785.70;1647981;85;21138;-70
2022/10/13 09:09:54;;;;;;;9.38;5.67;;;;;;;12.32;74.90;100783.24;1602785;85;21064;-69
2022/10/13 09:12:25;;;;;;;12.03;6.35;;;;;;;12.43;74.38;100781.57;1648754;86;21149;-72
2022/10/13 09:15:04;;;;;;;8.83;5.58;;;;;;;12.52;73.92;100784.20;1648010;86;20956;-71
2022/10/13 09:17:31;;;;;;;8.48;5.00;;;;;;;12.61;73.33;100782.27;1648236;85;21073;-68
2022/10/13 09:20:24;;;;;;;14.23;5.67;;;;;;;12.70;72.50;100784.09;1648869;86;21005;-70
2022/10/13 09:23:06;;;;;;;8.35;5.58;;;;;;;12.76;71.72;100793.13;1632222;85;21058;-69
2022/10/13 09:25:42;;;;;;;16.42;5.78;;;;;;;12.79;72.01;100785.37;1645681;86;21026;-71
2022/10/13 09:28:26;;;;;;;7.28;4.45;;;;;;;12.79;71.68;100775.92;1623247;87;21078;-76
2022/10/13 09:31:20;;;;;;;11.78;5.58;;;;;;;12.84;71.20;100777.38;1634766;86;21102;-71
2022/10/13 09:34:01;;;;;;;17.17;4.92;;;;;;;12.78;70.46;100776.97;1637187;87;21931;-71
2022/10/13 09:36:29;;;;;;;12.35;5.00;;;;;;;12.76;70.11;100777.72;1584714;89;21058;-81
2022/10/13 09:39:15;;;;;;;9.50;5.45;;;;;;;12.79;70.14;100774.57;1609782;89;21538;-85
2022/10/13 09:41:43;;;;;;;15.13;5.10;;;;;;;12.86;69.84;100773.06;1649078;86;21017;-85
2022/10/13 09:44:15;;;;;;;12.33;5.80;;;;;;;12.88;69.40;100769.61;1648766;85;21766;-79
2022/10/13 09:46:51;;;;;;;5.90;4.90;;;;;;;12.90;69.21;100766.95;1647726;85;21208;-76
2022/10/13 09:49:40;;;;;;;8.03;4.95;;;;;;;12.94;69.10;100765.97;1648575;86;21089;-71
2022/10/13 09:52:16;;;;;;;8.83;4.53;;;;;;;12.94;68.61;100763.27;1648579;85;21033;-69
2022/10/13 09:54:51;;;;;;;10.48;4.03;;;;;;;12.95;68.54;100766.27;1647906;86;21055;-71
2022/10/13 09:57:47;;;;;;;7.78;4.50;;;;;;;12.99;68.38;100765.55;1649504;85;21570;-71
2022/10/13 10:00:25;;;;;;;9.80;4.80;;;;;;;13.05;68.34;100763.22;1637583;85;21520;-72
2022/10/13 10:03:21;;;;;;;8.43;4.37;;;;;;;13.08;68.02;100764.11;1655677;85;21159;-72
2022/10/13 10:06:03;;;;;;;9.90;4.35;;;;;;;13.10;67.91;100761.14;1613747;86;21094;-71
2022/10/13 10:08:55;;;;;;;15.48;5.33;;;;;;;13.05;67.88;100756.98;1648009;86;21060;-70
2022/10/13 10:11:39;;;;;;;10.58;4.90;;;;;;;12.99;68.18;100754.74;1641750;85;21712;-69
2022/10/13 10:14:32;;;;;;;13.75;5.85;;;;;;;12.99;68.52;100756.09;1648356;87;21436;-78
2022/10/13 10:17:36;;;;;;;17.92;8.63;;;;;;;13.02;68.52;100762.88;1647464;87;21660;-79
2022/10/13 10:20:37;;;;;;;12.85;5.67;;;;;;;13.06;68.58;100761.34;1649715;85;21118;-78
2022/10/13 10:23:30;;;;;;;10.35;5.17;;;;;;;13.10;68.61;100761.14;1639845;85;21046;-79
2022/10/13 10:26:00;;;;;;;13.28;6.15;;;;;;;13.08;68.58;100760.05;1630860;87;21567;-78
2022/10/13 10:29:00;;;;;;;11.33;5.33;;;;;;;13.04;68.64;100763.48;1646083;87;21513;-81
2022/10/13 10:32:02;;;;;;;8.75;5.17;;;;;;;12.99;68.96;100762.02;1604557;89;21033;-77
2022/10/13 10:34:39;;;;;;;8.93;5.00;;;;;;;13.03;69.20;100757.78;1585005;90;21083;-85
2022/10/13 10:37:31;;;;;;;8.13;4.62;;;;;;;13.06;69.37;100755.41;1630794;87;20988;-72
2022/10/13 10:40:39;;;;;;;10.63;4.80;;;;;;;13.05;69.51;100755.11;1650087;85;21054;-80
2022/10/13 10:43:35;;;;;;;12.18;5.37;;;;;;;13.09;69.47;100755.48;1645925;85;22111;-77
2022/10/13 10:46:02;;;;;;;9.70;5.10;;;;;;;13.13;69.27;100752.61;1648699;86;21168;-82
2022/10/13 10:48:35;;;;;;;7.28;4.00;;;;;;;13.13;69.25;100747.20;1649083;86;21067;-85
2022/10/13 10:51:01;;;;;;;23.07;12.90;;;;;;;13.14;69.31;100746.13;1648674;85;21397;-80
2022/10/13 10:53:55;;;;;;;11.63;6.58;;;;;;;13.08;69.48;100744.38;1666770;85;21051;-79
2022/10/13 10:56:32;;;;;;;10.65;5.95;;;;;;;13.06;69.81;100739.20;1606098;85;21831;-77
2022/10/13 10:59:25;;;;;;;11.22;5.25;;;;;;;13.03;70.05;100738.34;1627311;85;21103;-81
2022/10/13 11:02:09;;;;;;;10.70;5.28;;;;;;;13.00;69.88;100739.33;1647160;85;21003;-77
2022/10/13 11:04:46;;;;;;;11.25;5.37;;;;;;;13.01;70.06;100738.28;1648341;86;21020;-78
2022/10/13 11:07:27;;;;;;;13.85;4.90;;;;;;;13.00;70.35;100736.11;1648640;85;21666;-82
2022/10/13 11:10:01;;;;;;;10.98;5.40;;;;;;;13.02;70.56;100740.75;1622576;85;21707;-72
2022/10/13 11:12:54;;;;;;;10.03;5.60;;;;;;;13.08;70.74;100735.74;1640988;87;20957;-75
2022/10/13 11:15:41;;;;;;;8.88;5.67;;;;;;;13.12;70.61;100737.45;1647675;87;21029;-71
2022/10/13 11:19:04;;;;;;;11.85;5.03;;;;;;;13.08;70.65;100741.14;1647550;86;21616;-75
2022/10/13 11:21:58;;;;;;;10.70;5.40;;;;;;;13.09;70.85;100741.97;1646946;85;21276;-75
2022/10/13 11:24:42;;;;;;;11.97;5.05;;;;;;;13.11;70.73;100741.22;1628573;87;21127;-73
2022/10/13 11:27:18;;;;;;;9.00;5.03;;;;;;;13.08;70.91;100740.33;1648411;86;21056;-73
2022/10/13 11:29:54;;;;;;;12.45;5.97;;;;;;;13.10;70.70;100744.94;1647124;86;21633;-75
2022/10/13 11:35:11;;;;;;;17.82;6.37;;;;;;;13.07;70.53;100740.03;1657042;86;21063;-74
2022/10/13 11:38:01;;;;;;;13.53;5.72;;;;;;;13.05;70.66;100734.86;1657203;85;21927;-79
2022/10/13 11:41:07;;;;;;;8.63;5.40;;;;;;;13.10;70.82;100738.19;1657066;86;20971;-76
2022/10/13 11:44:04;;;;;;;14.20;6.58;;;;;;;13.18;70.75;100741.91;1630847;87;21555;-77
2022/10/13 11:46:57;;;;;;;8.45;5.47;;;;;;;13.17;70.81;100729.98;1631185;88;21084;-79
2022/10/13 11:49:38;;;;;;;22.80;6.50;;;;;;;13.18;71.10;100737.03;1656897;86;21533;-82
2022/10/13 11:52:36;;;;;;;13.13;7.33;;;;;;;13.17;70.94;100738.09;1658418;86;21358;-77